createdAt,value
2022-09-12T00:00:17.850Z,4.38
2022-09-12T00:05:21.475Z,5.78
2022-09-12T00:10:26.411Z,4.80
2022-09-12T00:15:29.458Z,5.90
2022-09-12T00:20:32.606Z,4.85
2022-09-12T00:25:41.566Z,4.50
2022-09-12T00:30:46.276Z,4.60
2022-09-12T00:35:52.982Z,4.80
2022-09-12T00:40:57.461Z,3.90
2022-09-12T00:46:04.755Z,3.97
2022-09-12T00:51:08.497Z,4.68
2022-09-12T00:56:15.920Z,4.15
2022-09-12T01:01:19.688Z,4.75
2022-09-12T01:06:27.458Z,4.20
2022-09-12T01:11:34.428Z,4.85
2022-09-12T01:16:42.580Z,4.43
2022-09-12T01:21:55.458Z,4.55
2022-09-12T01:27:19.182Z,4.93
2022-09-12T01:32:32.215Z,3.58
2022-09-12T01:37:39.713Z,4.35
2022-09-12T01:42:49.831Z,4.57
2022-09-12T01:47:59.165Z,3.72
2022-09-12T01:53:07.044Z,4.40
2022-09-12T01:58:13.803Z,4.30
2022-09-12T02:03:24.142Z,4.63
2022-09-12T02:08:32.112Z,4.15
2022-09-12T02:13:41.391Z,4.03
2022-09-12T02:18:53.139Z,3.90
2022-09-12T02:23:59.539Z,4.43
2022-09-12T02:29:04.267Z,4.15
2022-09-12T02:34:21.704Z,4.57
2022-09-12T02:39:25.054Z,3.75
2022-09-12T02:44:30.099Z,3.83
2022-09-12T02:49:34.851Z,3.75
2022-09-12T02:54:38.388Z,3.97
2022-09-12T02:59:41.505Z,3.80
2022-09-12T03:04:59.895Z,4.10
2022-09-12T03:10:12.294Z,4.78
2022-09-12T03:15:29.242Z,4.25
2022-09-12T03:20:45.125Z,4.18
2022-09-12T03:25:53.245Z,4.38
2022-09-12T03:30:56.621Z,4.30
2022-09-12T03:36:01.325Z,4.07
2022-09-12T03:41:04.879Z,4.37
2022-09-12T03:46:08.313Z,4.47
2022-09-12T03:51:12.866Z,4.47
2022-09-12T03:56:18.107Z,4.25
2022-09-12T04:01:21.334Z,4.28
2022-09-12T04:06:25.935Z,4.47
2022-09-12T04:11:28.957Z,4.83
2022-09-12T04:16:32.899Z,4.50
2022-09-12T04:21:37.723Z,4.63
2022-09-12T04:26:40.779Z,4.93
2022-09-12T04:31:44.118Z,4.35
2022-09-12T04:36:48.548Z,4.30
2022-09-12T04:41:51.976Z,4.03
2022-09-12T04:46:55.343Z,5.07
2022-09-12T04:51:59.840Z,5.45
2022-09-12T04:57:02.940Z,5.20
2022-09-12T05:02:06.205Z,4.90
2022-09-12T05:07:10.853Z,4.68
2022-09-12T05:12:14.633Z,5.60
2022-09-12T05:17:17.733Z,6.75
2022-09-12T05:22:22.871Z,7.13
2022-09-12T05:27:25.938Z,8.23
2022-09-12T05:32:31.739Z,7.22
2022-09-12T05:37:36.113Z,7.18
2022-09-12T05:42:39.204Z,5.40
2022-09-12T05:47:43.863Z,7.18
2022-09-12T05:52:48.557Z,6.20
2022-09-12T05:57:51.733Z,7.50
2022-09-12T06:02:54.957Z,7.10
2022-09-12T06:07:59.378Z,6.35
2022-09-12T06:13:03.967Z,7.03
2022-09-12T06:18:07.100Z,8.83
2022-09-12T06:23:11.542Z,8.20
2022-09-12T06:28:14.672Z,6.53
2022-09-12T06:33:18.262Z,3.97
2022-09-12T06:38:22.726Z,4.53
2022-09-12T06:43:25.851Z,3.80
2022-09-12T06:48:29.380Z,4.03
2022-09-12T06:53:34.867Z,3.13
2022-09-12T06:58:38.401Z,3.42
2022-09-12T07:03:42.683Z,3.35
2022-09-12T07:08:47.840Z,2.83
2022-09-12T07:13:52.668Z,2.60
2022-09-12T07:18:57.906Z,3.80
2022-09-12T07:24:02.899Z,3.53
2022-09-12T07:34:28.864Z,3.28
2022-09-12T07:43:37.265Z,4.43
2022-09-12T07:48:41.182Z,5.03
2022-09-12T07:53:44.698Z,5.43
2022-09-12T07:58:49.130Z,6.20
2022-09-12T08:03:55.371Z,6.18
2022-09-12T08:08:59.922Z,5.72
2022-09-12T08:14:05.788Z,5.50
2022-09-12T08:19:08.895Z,5.35
2022-09-12T08:24:12.562Z,5.18
2022-09-12T08:29:17.744Z,4.60
2022-09-12T08:34:21.210Z,4.30
2022-09-12T08:39:24.893Z,2.67
2022-09-12T08:45:02.645Z,1.73
2022-09-12T08:50:18.835Z,1.77
2022-09-12T08:55:32.807Z,1.40
2022-09-12T09:05:51.438Z,1.15
2022-09-12T09:11:05.171Z,1.00
2022-09-12T09:16:18.511Z,1.15
2022-09-12T09:21:26.695Z,1.35
2022-09-12T09:26:37.225Z,1.15
2022-09-12T09:31:45.331Z,1.20
2022-09-12T09:36:51.627Z,1.20
2022-09-12T09:42:11.151Z,1.30
2022-09-12T09:47:17.522Z,1.13
2022-09-12T09:52:26.282Z,1.25
2022-09-12T09:57:41.569Z,1.08
2022-09-12T10:03:24.464Z,1.10
2022-09-12T10:08:30.084Z,0.95
2022-09-12T10:13:37.920Z,1.08
2022-09-12T10:18:43.097Z,0.93
2022-09-12T10:23:47.566Z,1.02
2022-09-12T10:28:54.113Z,1.00
2022-09-12T10:34:00.890Z,0.90
2022-09-12T10:39:05.611Z,0.90
2022-09-12T10:44:16.695Z,1.00
2022-09-12T10:49:24.360Z,1.00
2022-09-12T10:54:28.578Z,1.30
2022-09-12T10:59:41.054Z,0.75
2022-09-12T11:04:56.141Z,0.70
2022-09-12T11:10:06.296Z,1.10
2022-09-12T11:15:27.557Z,1.00
2022-09-12T11:20:51.838Z,1.00
2022-09-12T11:31:28.875Z,1.00
2022-09-12T11:36:41.954Z,0.90
2022-09-12T11:41:51.242Z,1.00
2022-09-12T11:46:54.601Z,1.33
2022-09-12T11:52:05.421Z,1.15
2022-09-12T11:57:17.777Z,1.25
2022-09-12T12:02:26.653Z,0.80
2022-09-12T12:07:45.435Z,1.20
2022-09-12T12:12:50.065Z,1.30
2022-09-12T12:18:05.960Z,1.08
2022-09-12T12:23:26.326Z,0.98
2022-09-12T12:28:59.143Z,0.80
2022-09-12T12:34:22.637Z,1.00
2022-09-12T12:40:01.233Z,1.00
2022-09-12T12:45:48.423Z,1.00
2022-09-12T12:50:51.653Z,1.00
2022-09-12T12:55:56.924Z,0.80
2022-09-12T13:01:11.280Z,1.00
2022-09-12T13:06:29.733Z,0.90
2022-09-12T13:11:35.865Z,0.80
2022-09-12T13:16:53.896Z,0.90
2022-09-12T13:21:57.806Z,0.77
2022-09-12T13:27:02.207Z,1.00
2022-09-12T13:32:07.014Z,0.90
2022-09-12T13:37:30.392Z,1.77
2022-09-12T13:42:40.168Z,0.80
2022-09-12T13:47:46.435Z,1.10
2022-09-12T13:52:54.451Z,1.10
2022-09-12T13:58:00.496Z,0.90
2022-09-12T14:03:43.740Z,1.10
2022-09-12T14:08:48.251Z,1.00
2022-09-12T14:13:52.707Z,1.00
2022-09-12T14:18:57.577Z,0.93
2022-09-12T14:24:01.799Z,0.93
2022-09-12T14:29:06.593Z,1.10
2022-09-12T14:39:22.427Z,1.00
2022-09-12T14:44:27.552Z,0.90
2022-09-12T14:49:34.575Z,1.45
2022-09-12T14:54:40.351Z,1.25
2022-09-12T14:59:43.433Z,1.48
2022-09-12T15:04:49.436Z,1.10
2022-09-12T15:09:53.231Z,1.38
2022-09-12T15:15:00.951Z,1.55
2022-09-12T15:20:06.656Z,1.35
2022-09-12T15:25:12.686Z,1.20
2022-09-12T15:30:16.060Z,0.93
2022-09-12T15:35:23.559Z,1.00
2022-09-12T15:40:26.675Z,1.23
2022-09-12T15:45:32.293Z,1.20
2022-09-12T15:50:36.866Z,1.33
2022-09-12T15:55:40.425Z,1.17
2022-09-12T16:00:43.809Z,1.17
2022-09-12T16:05:48.937Z,1.40
2022-09-12T16:10:55.851Z,1.33
2022-09-12T16:16:01.405Z,1.38
2022-09-12T16:21:08.196Z,1.90
2022-09-12T16:26:15.091Z,1.80
2022-09-12T16:53:58.706Z,1.90
2022-09-12T16:59:01.931Z,1.95
2022-09-12T17:04:05.212Z,1.67
2022-09-12T17:09:11.240Z,1.63
2022-09-12T17:14:14.612Z,1.65
2022-09-12T17:19:21.503Z,1.88
2022-09-12T17:24:26.897Z,2.20
2022-09-12T17:29:30.010Z,2.17
2022-09-12T17:34:33.205Z,2.60
2022-09-12T17:39:37.564Z,2.13
2022-09-12T17:44:40.673Z,2.63
2022-09-12T17:49:44.924Z,1.98
2022-09-12T17:54:49.418Z,2.08
2022-09-12T17:59:52.599Z,2.20
2022-09-12T18:04:55.702Z,2.40
2022-09-12T18:10:00.390Z,2.00
2022-09-12T18:15:03.703Z,2.50
2022-09-12T18:20:07.464Z,2.10
2022-09-12T18:25:12.202Z,2.22
2022-09-12T18:30:21.672Z,2.17
2022-09-12T18:35:25.583Z,2.20
2022-09-12T18:40:30.130Z,2.10
2022-09-12T18:45:34.026Z,2.30
2022-09-12T18:50:37.115Z,2.28
2022-09-12T18:55:42.404Z,2.28
2022-09-12T19:05:51.582Z,2.85
2022-09-12T19:10:56.735Z,2.72
2022-09-12T19:16:01.302Z,2.50
2022-09-12T19:21:05.358Z,2.57
2022-09-12T19:26:11.665Z,2.70
2022-09-12T19:31:18.965Z,3.13
2022-09-12T19:36:43.830Z,2.85
2022-09-12T19:41:47.929Z,2.75
2022-09-12T19:46:51.159Z,2.92
2022-09-12T19:51:54.220Z,2.75
2022-09-12T19:56:58.566Z,2.60
2022-09-12T20:02:01.685Z,3.50
2022-09-12T20:07:04.850Z,2.65
2022-09-12T20:12:09.404Z,3.63
2022-09-12T20:17:13.053Z,3.20
2022-09-12T20:22:16.513Z,3.53
2022-09-12T20:27:20.965Z,3.65
2022-09-12T20:32:24.142Z,3.97
2022-09-12T20:37:27.366Z,3.28
2022-09-12T20:42:31.705Z,3.60
2022-09-12T20:47:34.799Z,3.90
2022-09-12T20:52:37.807Z,3.83
2022-09-12T20:57:42.171Z,4.07
2022-09-12T21:02:45.257Z,4.70
2022-09-12T21:07:48.265Z,4.47
2022-09-12T21:12:54.017Z,4.20
2022-09-12T21:17:57.210Z,4.88
2022-09-12T21:23:00.495Z,3.88
2022-09-12T21:28:04.816Z,4.20
2022-09-12T21:33:07.812Z,4.28
2022-09-12T21:38:11.121Z,5.15
2022-09-12T21:43:15.838Z,4.40
2022-09-12T21:48:18.911Z,5.20
2022-09-12T21:53:22.511Z,4.65
2022-09-12T21:58:26.851Z,3.60
2022-09-12T22:03:29.909Z,3.92
2022-09-12T22:08:34.691Z,4.38
2022-09-12T22:13:43.844Z,4.22
2022-09-12T22:18:47.110Z,4.05
2022-09-12T22:24:09.123Z,5.70
2022-09-12T22:29:14.508Z,4.47
2022-09-12T22:34:17.692Z,5.18
2022-09-12T22:39:20.970Z,4.53
2022-09-12T22:44:25.461Z,4.90
2022-09-12T22:49:28.570Z,4.47
2022-09-12T22:54:31.615Z,4.70
2022-09-12T22:59:36.094Z,5.78
2022-09-12T23:04:39.158Z,4.72
2022-09-12T23:09:42.264Z,5.18
2022-09-12T23:14:47.487Z,5.15
2022-09-12T23:19:50.539Z,5.28
2022-09-12T23:24:53.617Z,4.70
2022-09-12T23:29:58.019Z,4.80
2022-09-12T23:35:01.115Z,5.15
2022-09-12T23:40:04.714Z,5.15
2022-09-12T23:45:10.494Z,5.10
2022-09-12T23:50:13.741Z,4.82
2022-09-12T23:55:16.927Z,4.90
